sensor_id;sensor_type;location;lat;lon;timestamp;temperature;humidity
18365;DHT22;9309;52.126;11.616;2023-08-12T00:01:16;19.20;68.90
18365;DHT22;9309;52.126;11.616;2023-08-12T00:03:45;19.20;68.90
18365;DHT22;9309;52.126;11.616;2023-08-12T00:06:12;19.20;69.10
18365;DHT22;9309;52.126;11.616;2023-08-12T00:08:39;19.20;69.10
18365;DHT22;9309;52.126;11.616;2023-08-12T00:11:05;19.20;69.10
18365;DHT22;9309;52.126;11.616;2023-08-12T00:13:33;19.10;69.00
18365;DHT22;9309;52.126;11.616;2023-08-12T00:16:00;19.10;69.00
18365;DHT22;9309;52.126;11.616;2023-08-12T00:18:27;19.10;69.40
18365;DHT22;9309;52.126;11.616;2023-08-12T00:20:54;19.10;69.20
18365;DHT22;9309;52.126;11.616;2023-08-12T00:23:21;19.10;69.10
18365;DHT22;9309;52.126;11.616;2023-08-12T00:25:49;19.10;69.30
18365;DHT22;9309;52.126;11.616;2023-08-12T00:28:16;19.20;69.00
18365;DHT22;9309;52.126;11.616;2023-08-12T00:30:44;19.20;69.10
18365;DHT22;9309;52.126;11.616;2023-08-12T00:33:10;19.30;68.40
18365;DHT22;9309;52.126;11.616;2023-08-12T00:35:37;19.30;68.40
18365;DHT22;9309;52.126;11.616;2023-08-12T00:38:04;19.40;68.00
18365;DHT22;9309;52.126;11.616;2023-08-12T00:40:30;19.50;67.90
18365;DHT22;9309;52.126;11.616;2023-08-12T00:42:57;19.40;68.10
18365;DHT22;9309;52.126;11.616;2023-08-12T00:45:24;19.40;68.00
18365;DHT22;9309;52.126;11.616;2023-08-12T00:47:53;19.50;67.60
18365;DHT22;9309;52.126;11.616;2023-08-12T00:50:20;19.50;67.90
18365;DHT22;9309;52.126;11.616;2023-08-12T00:52:47;19.50;67.80
18365;DHT22;9309;52.126;11.616;2023-08-12T00:55:14;19.30;68.20
18365;DHT22;9309;52.126;11.616;2023-08-12T00:57:41;19.20;68.50
18365;DHT22;9309;52.126;11.616;2023-08-12T01:00:08;19.20;68.60
18365;DHT22;9309;52.126;11.616;2023-08-12T01:02:35;19.20;68.50
18365;DHT22;9309;52.126;11.616;2023-08-12T01:05:05;19.30;68.50
18365;DHT22;9309;52.126;11.616;2023-08-12T01:07:34;19.20;68.80
18365;DHT22;9309;52.126;11.616;2023-08-12T01:10:01;19.20;68.80
18365;DHT22;9309;52.126;11.616;2023-08-12T01:12:31;19.20;68.70
18365;DHT22;9309;52.126;11.616;2023-08-12T01:15:03;19.10;69.00
18365;DHT22;9309;52.126;11.616;2023-08-12T01:17:35;19.10;69.10
18365;DHT22;9309;52.126;11.616;2023-08-12T01:20:05;19.10;69.30
18365;DHT22;9309;52.126;11.616;2023-08-12T01:22:34;19.10;69.00
18365;DHT22;9309;52.126;11.616;2023-08-12T01:25:07;19.20;68.70
18365;DHT22;9309;52.126;11.616;2023-08-12T01:27:34;19.30;68.40
18365;DHT22;9309;52.126;11.616;2023-08-12T01:30:01;19.30;68.50
18365;DHT22;9309;52.126;11.616;2023-08-12T01:32:36;19.30;68.70
18365;DHT22;9309;52.126;11.616;2023-08-12T01:35:09;19.10;69.10
18365;DHT22;9309;52.126;11.616;2023-08-12T01:37:38;19.20;69.10
18365;DHT22;9309;52.126;11.616;2023-08-12T01:40:09;19.10;69.10
18365;DHT22;9309;52.126;11.616;2023-08-12T01:42:39;19.20;69.10
18365;DHT22;9309;52.126;11.616;2023-08-12T01:45:07;19.00;70.10
18365;DHT22;9309;52.126;11.616;2023-08-12T01:47:33;19.10;69.40
18365;DHT22;9309;52.126;11.616;2023-08-12T01:50:00;19.00;69.90
18365;DHT22;9309;52.126;11.616;2023-08-12T01:52:27;19.00;70.10
18365;DHT22;9309;52.126;11.616;2023-08-12T01:54:54;18.90;70.60
18365;DHT22;9309;52.126;11.616;2023-08-12T01:57:22;18.90;70.50
18365;DHT22;9309;52.126;11.616;2023-08-12T01:59:50;18.80;71.50
18365;DHT22;9309;52.126;11.616;2023-08-12T02:02:17;18.80;71.10
18365;DHT22;9309;52.126;11.616;2023-08-12T02:04:44;18.50;72.10
18365;DHT22;9309;52.126;11.616;2023-08-12T02:07:11;18.60;72.00
18365;DHT22;9309;52.126;11.616;2023-08-12T02:09:37;18.60;71.80
18365;DHT22;9309;52.126;11.616;2023-08-12T02:12:05;18.60;72.10
18365;DHT22;9309;52.126;11.616;2023-08-12T02:14:33;18.50;72.60
18365;DHT22;9309;52.126;11.616;2023-08-12T02:17:02;18.50;72.30
18365;DHT22;9309;52.126;11.616;2023-08-12T02:19:31;18.40;73.00
18365;DHT22;9309;52.126;11.616;2023-08-12T02:21:58;18.40;73.00
18365;DHT22;9309;52.126;11.616;2023-08-12T02:24:25;18.40;72.80
18365;DHT22;9309;52.126;11.616;2023-08-12T02:26:51;18.40;72.80
18365;DHT22;9309;52.126;11.616;2023-08-12T02:29:18;18.30;73.40
18365;DHT22;9309;52.126;11.616;2023-08-12T02:31:46;18.30;73.50
18365;DHT22;9309;52.126;11.616;2023-08-12T02:34:13;18.30;73.70
18365;DHT22;9309;52.126;11.616;2023-08-12T02:36:40;18.10;74.40
18365;DHT22;9309;52.126;11.616;2023-08-12T02:39:07;18.10;74.40
18365;DHT22;9309;52.126;11.616;2023-08-12T02:41:34;18.10;74.40
18365;DHT22;9309;52.126;11.616;2023-08-12T02:44:01;18.10;74.90
18365;DHT22;9309;52.126;11.616;2023-08-12T02:46:28;18.00;75.00
18365;DHT22;9309;52.126;11.616;2023-08-12T02:48:56;18.10;74.70
18365;DHT22;9309;52.126;11.616;2023-08-12T02:51:22;18.20;74.30
18365;DHT22;9309;52.126;11.616;2023-08-12T02:53:49;18.30;73.60
18365;DHT22;9309;52.126;11.616;2023-08-12T02:56:16;18.30;73.40
18365;DHT22;9309;52.126;11.616;2023-08-12T02:58:43;18.30;73.80
18365;DHT22;9309;52.126;11.616;2023-08-12T03:01:09;18.50;72.80
18365;DHT22;9309;52.126;11.616;2023-08-12T03:03:36;18.60;72.30
18365;DHT22;9309;52.126;11.616;2023-08-12T03:06:05;18.70;71.90
18365;DHT22;9309;52.126;11.616;2023-08-12T03:08:31;18.60;72.50
18365;DHT22;9309;52.126;11.616;2023-08-12T03:10:59;18.60;72.30
18365;DHT22;9309;52.126;11.616;2023-08-12T03:13:26;18.70;71.70
18365;DHT22;9309;52.126;11.616;2023-08-12T03:15:53;18.60;71.90
18365;DHT22;9309;52.126;11.616;2023-08-12T03:18:20;18.50;72.30
18365;DHT22;9309;52.126;11.616;2023-08-12T03:20:47;18.50;72.40
18365;DHT22;9309;52.126;11.616;2023-08-12T03:23:15;18.70;72.10
18365;DHT22;9309;52.126;11.616;2023-08-12T03:25:43;18.60;72.60
18365;DHT22;9309;52.126;11.616;2023-08-12T03:28:10;18.40;73.30
18365;DHT22;9309;52.126;11.616;2023-08-12T03:30:37;18.20;73.70
18365;DHT22;9309;52.126;11.616;2023-08-12T03:33:05;18.20;73.60
18365;DHT22;9309;52.126;11.616;2023-08-12T03:35:33;18.30;73.40
18365;DHT22;9309;52.126;11.616;2023-08-12T03:37:59;18.30;73.30
18365;DHT22;9309;52.126;11.616;2023-08-12T03:40:28;18.40;73.20
18365;DHT22;9309;52.126;11.616;2023-08-12T03:42:56;18.40;72.80
18365;DHT22;9309;52.126;11.616;2023-08-12T03:45:24;18.40;72.60
18365;DHT22;9309;52.126;11.616;2023-08-12T03:47:51;18.30;73.10
18365;DHT22;9309;52.126;11.616;2023-08-12T03:50:18;18.30;72.90
18365;DHT22;9309;52.126;11.616;2023-08-12T03:52:44;18.30;73.30
18365;DHT22;9309;52.126;11.616;2023-08-12T03:55:11;18.40;72.70
18365;DHT22;9309;52.126;11.616;2023-08-12T03:57:39;18.40;72.50
18365;DHT22;9309;52.126;11.616;2023-08-12T04:00:07;18.40;72.70
18365;DHT22;9309;52.126;11.616;2023-08-12T04:02:40;18.40;72.50
18365;DHT22;9309;52.126;11.616;2023-08-12T04:05:07;18.30;73.10
18365;DHT22;9309;52.126;11.616;2023-08-12T04:07:36;18.40;73.00
18365;DHT22;9309;52.126;11.616;2023-08-12T04:10:02;18.50;72.70
18365;DHT22;9309;52.126;11.616;2023-08-12T04:12:29;18.50;72.20
18365;DHT22;9309;52.126;11.616;2023-08-12T04:14:58;18.60;71.80
18365;DHT22;9309;52.126;11.616;2023-08-12T04:17:25;18.70;71.80
18365;DHT22;9309;52.126;11.616;2023-08-12T04:19:52;18.70;71.60
18365;DHT22;9309;52.126;11.616;2023-08-12T04:22:19;18.80;71.40
18365;DHT22;9309;52.126;11.616;2023-08-12T04:24:45;18.80;71.20
18365;DHT22;9309;52.126;11.616;2023-08-12T04:27:12;18.80;71.20
18365;DHT22;9309;52.126;11.616;2023-08-12T04:29:39;18.80;71.40
18365;DHT22;9309;52.126;11.616;2023-08-12T04:32:07;18.70;71.50
18365;DHT22;9309;52.126;11.616;2023-08-12T04:34:34;18.60;71.90
18365;DHT22;9309;52.126;11.616;2023-08-12T04:37:02;18.60;72.10
18365;DHT22;9309;52.126;11.616;2023-08-12T04:39:32;18.70;72.10
18365;DHT22;9309;52.126;11.616;2023-08-12T04:42:05;18.70;72.30
18365;DHT22;9309;52.126;11.616;2023-08-12T04:44:32;18.50;72.90
18365;DHT22;9309;52.126;11.616;2023-08-12T04:46:59;18.40;73.10
18365;DHT22;9309;52.126;11.616;2023-08-12T04:49:28;18.50;72.80
18365;DHT22;9309;52.126;11.616;2023-08-12T04:51:56;18.60;72.40
18365;DHT22;9309;52.126;11.616;2023-08-12T04:54:23;18.70;71.80
18365;DHT22;9309;52.126;11.616;2023-08-12T04:56:49;18.60;72.70
18365;DHT22;9309;52.126;11.616;2023-08-12T04:59:16;18.60;72.70
18365;DHT22;9309;52.126;11.616;2023-08-12T05:01:44;18.80;72.30
18365;DHT22;9309;52.126;11.616;2023-08-12T05:04:11;18.80;72.70
18365;DHT22;9309;52.126;11.616;2023-08-12T05:06:39;19.00;72.00
18365;DHT22;9309;52.126;11.616;2023-08-12T05:09:06;18.90;72.40
18365;DHT22;9309;52.126;11.616;2023-08-12T05:11:34;18.70;72.40
18365;DHT22;9309;52.126;11.616;2023-08-12T05:14:01;18.70;72.80
18365;DHT22;9309;52.126;11.616;2023-08-12T05:16:28;18.80;72.40
18365;DHT22;9309;52.126;11.616;2023-08-12T05:18:56;19.00;71.70
18365;DHT22;9309;52.126;11.616;2023-08-12T05:21:23;19.00;71.50
18365;DHT22;9309;52.126;11.616;2023-08-12T05:23:51;19.10;71.40
18365;DHT22;9309;52.126;11.616;2023-08-12T05:26:18;19.20;70.90
18365;DHT22;9309;52.126;11.616;2023-08-12T05:28:45;19.30;70.60
18365;DHT22;9309;52.126;11.616;2023-08-12T05:31:12;19.70;69.80
18365;DHT22;9309;52.126;11.616;2023-08-12T05:33:39;19.70;69.80
18365;DHT22;9309;52.126;11.616;2023-08-12T05:36:05;19.90;69.20
18365;DHT22;9309;52.126;11.616;2023-08-12T05:38:32;20.20;68.30
18365;DHT22;9309;52.126;11.616;2023-08-12T05:41:00;20.30;67.40
18365;DHT22;9309;52.126;11.616;2023-08-12T05:43:29;20.40;67.50
18365;DHT22;9309;52.126;11.616;2023-08-12T05:45:56;20.50;67.50
18365;DHT22;9309;52.126;11.616;2023-08-12T05:48:22;20.60;67.10
18365;DHT22;9309;52.126;11.616;2023-08-12T05:50:49;20.80;66.00
18365;DHT22;9309;52.126;11.616;2023-08-12T05:53:16;20.70;66.60
18365;DHT22;9309;52.126;11.616;2023-08-12T05:55:42;20.80;66.70
18365;DHT22;9309;52.126;11.616;2023-08-12T05:58:11;20.70;66.80
18365;DHT22;9309;52.126;11.616;2023-08-12T06:00:37;20.30;67.90
18365;DHT22;9309;52.126;11.616;2023-08-12T06:03:04;20.30;68.20
18365;DHT22;9309;52.126;11.616;2023-08-12T06:05:31;20.40;67.70
18365;DHT22;9309;52.126;11.616;2023-08-12T06:07:57;20.40;67.70
18365;DHT22;9309;52.126;11.616;2023-08-12T06:10:24;20.40;67.30
18365;DHT22;9309;52.126;11.616;2023-08-12T06:12:51;20.30;67.60
18365;DHT22;9309;52.126;11.616;2023-08-12T06:15:19;20.40;68.20
18365;DHT22;9309;52.126;11.616;2023-08-12T06:17:46;20.30;68.40
18365;DHT22;9309;52.126;11.616;2023-08-12T06:20:13;20.10;69.80
18365;DHT22;9309;52.126;11.616;2023-08-12T06:22:39;19.80;71.20
18365;DHT22;9309;52.126;11.616;2023-08-12T06:25:07;19.50;71.70
18365;DHT22;9309;52.126;11.616;2023-08-12T06:27:34;19.50;72.20
18365;DHT22;9309;52.126;11.616;2023-08-12T06:30:00;19.80;70.90
18365;DHT22;9309;52.126;11.616;2023-08-12T06:32:28;19.80;71.50
18365;DHT22;9309;52.126;11.616;2023-08-12T06:34:55;19.80;72.20
18365;DHT22;9309;52.126;11.616;2023-08-12T06:37:22;20.10;71.90
18365;DHT22;9309;52.126;11.616;2023-08-12T06:39:49;19.90;73.30
18365;DHT22;9309;52.126;11.616;2023-08-12T06:42:16;20.10;73.70
18365;DHT22;9309;52.126;11.616;2023-08-12T06:44:45;20.20;73.50
18365;DHT22;9309;52.126;11.616;2023-08-12T06:47:11;20.30;73.20
18365;DHT22;9309;52.126;11.616;2023-08-12T06:49:39;20.50;72.50
18365;DHT22;9309;52.126;11.616;2023-08-12T06:52:06;20.60;72.00
18365;DHT22;9309;52.126;11.616;2023-08-12T06:54:33;20.50;72.10
18365;DHT22;9309;52.126;11.616;2023-08-12T06:57:00;20.40;72.90
18365;DHT22;9309;52.126;11.616;2023-08-12T06:59:26;20.10;74.00
18365;DHT22;9309;52.126;11.616;2023-08-12T07:01:53;20.30;73.30
18365;DHT22;9309;52.126;11.616;2023-08-12T07:04:20;20.40;73.10
18365;DHT22;9309;52.126;11.616;2023-08-12T07:06:48;20.30;73.40
18365;DHT22;9309;52.126;11.616;2023-08-12T07:09:14;20.30;73.00
18365;DHT22;9309;52.126;11.616;2023-08-12T07:11:41;19.90;75.10
18365;DHT22;9309;52.126;11.616;2023-08-12T07:14:08;19.90;74.30
18365;DHT22;9309;52.126;11.616;2023-08-12T07:16:35;20.00;74.40
18365;DHT22;9309;52.126;11.616;2023-08-12T07:19:01;20.10;73.80
18365;DHT22;9309;52.126;11.616;2023-08-12T07:21:28;20.10;73.90
18365;DHT22;9309;52.126;11.616;2023-08-12T07:23:56;20.20;73.60
18365;DHT22;9309;52.126;11.616;2023-08-12T07:26:23;19.90;74.30
18365;DHT22;9309;52.126;11.616;2023-08-12T07:28:50;19.90;74.40
18365;DHT22;9309;52.126;11.616;2023-08-12T07:31:17;20.30;73.00
18365;DHT22;9309;52.126;11.616;2023-08-12T07:33:44;20.30;73.00
18365;DHT22;9309;52.126;11.616;2023-08-12T07:36:11;20.40;73.00
18365;DHT22;9309;52.126;11.616;2023-08-12T07:38:37;20.40;74.20
18365;DHT22;9309;52.126;11.616;2023-08-12T07:41:05;20.40;74.70
18365;DHT22;9309;52.126;11.616;2023-08-12T07:43:32;20.80;73.90
18365;DHT22;9309;52.126;11.616;2023-08-12T07:45:59;21.40;71.10
18365;DHT22;9309;52.126;11.616;2023-08-12T07:48:25;21.70;69.80
18365;DHT22;9309;52.126;11.616;2023-08-12T07:50:56;21.70;68.80
18365;DHT22;9309;52.126;11.616;2023-08-12T07:53:23;21.80;68.00
18365;DHT22;9309;52.126;11.616;2023-08-12T07:55:49;21.90;68.10
18365;DHT22;9309;52.126;11.616;2023-08-12T07:58:17;22.00;67.60
18365;DHT22;9309;52.126;11.616;2023-08-12T08:00:44;21.70;68.60
18365;DHT22;9309;52.126;11.616;2023-08-12T08:03:11;21.50;69.50
18365;DHT22;9309;52.126;11.616;2023-08-12T08:05:40;21.60;69.00
18365;DHT22;9309;52.126;11.616;2023-08-12T08:08:06;21.30;70.70
18365;DHT22;9309;52.126;11.616;2023-08-12T08:10:33;21.00;72.20
18365;DHT22;9309;52.126;11.616;2023-08-12T08:13:00;21.20;71.90
18365;DHT22;9309;52.126;11.616;2023-08-12T08:15:28;21.00;73.10
18365;DHT22;9309;52.126;11.616;2023-08-12T08:17:54;20.90;73.20
18365;DHT22;9309;52.126;11.616;2023-08-12T08:20:21;21.10;72.00
18365;DHT22;9309;52.126;11.616;2023-08-12T08:22:48;21.00;72.50
18365;DHT22;9309;52.126;11.616;2023-08-12T08:25:15;21.00;72.40
18365;DHT22;9309;52.126;11.616;2023-08-12T08:27:42;20.90;73.00
18365;DHT22;9309;52.126;11.616;2023-08-12T08:30:10;21.30;71.80
18365;DHT22;9309;52.126;11.616;2023-08-12T08:32:38;21.60;70.60
18365;DHT22;9309;52.126;11.616;2023-08-12T08:35:05;21.60;70.40
18365;DHT22;9309;52.126;11.616;2023-08-12T08:37:32;22.00;70.00
18365;DHT22;9309;52.126;11.616;2023-08-12T08:39:59;22.30;68.90
18365;DHT22;9309;52.126;11.616;2023-08-12T08:42:25;22.50;67.10
18365;DHT22;9309;52.126;11.616;2023-08-12T08:44:53;22.30;68.40
18365;DHT22;9309;52.126;11.616;2023-08-12T08:47:25;22.10;69.10
18365;DHT22;9309;52.126;11.616;2023-08-12T08:49:55;22.10;69.10
18365;DHT22;9309;52.126;11.616;2023-08-12T08:52:22;22.10;69.50
18365;DHT22;9309;52.126;11.616;2023-08-12T08:54:49;22.00;69.70
18365;DHT22;9309;52.126;11.616;2023-08-12T08:57:16;22.10;69.50
18365;DHT22;9309;52.126;11.616;2023-08-12T08:59:43;22.20;69.60
18365;DHT22;9309;52.126;11.616;2023-08-12T09:02:15;22.20;70.10
18365;DHT22;9309;52.126;11.616;2023-08-12T09:04:42;22.00;70.90
18365;DHT22;9309;52.126;11.616;2023-08-12T09:07:11;22.10;70.50
18365;DHT22;9309;52.126;11.616;2023-08-12T09:09:40;22.00;71.10
18365;DHT22;9309;52.126;11.616;2023-08-12T09:12:08;22.10;71.10
18365;DHT22;9309;52.126;11.616;2023-08-12T09:14:36;22.30;71.50
18365;DHT22;9309;52.126;11.616;2023-08-12T09:17:03;22.30;71.20
18365;DHT22;9309;52.126;11.616;2023-08-12T09:19:30;22.50;70.70
18365;DHT22;9309;52.126;11.616;2023-08-12T09:21:56;22.50;70.50
18365;DHT22;9309;52.126;11.616;2023-08-12T09:24:27;22.60;70.20
18365;DHT22;9309;52.126;11.616;2023-08-12T09:26:55;22.60;70.50
18365;DHT22;9309;52.126;11.616;2023-08-12T09:29:22;22.70;69.70
18365;DHT22;9309;52.126;11.616;2023-08-12T09:31:50;22.40;70.60
18365;DHT22;9309;52.126;11.616;2023-08-12T09:34:18;22.10;71.70
18365;DHT22;9309;52.126;11.616;2023-08-12T09:36:44;21.90;72.80
18365;DHT22;9309;52.126;11.616;2023-08-12T09:39:12;21.80;73.40
18365;DHT22;9309;52.126;11.616;2023-08-12T09:41:41;21.90;73.50
18365;DHT22;9309;52.126;11.616;2023-08-12T09:44:09;21.90;73.50
18365;DHT22;9309;52.126;11.616;2023-08-12T09:46:36;21.90;74.70
18365;DHT22;9309;52.126;11.616;2023-08-12T09:49:04;21.90;75.00
18365;DHT22;9309;52.126;11.616;2023-08-12T09:51:34;21.90;75.10
18365;DHT22;9309;52.126;11.616;2023-08-12T09:54:02;21.90;74.90
18365;DHT22;9309;52.126;11.616;2023-08-12T09:56:32;21.80;75.70
18365;DHT22;9309;52.126;11.616;2023-08-12T09:59:04;21.90;76.10
18365;DHT22;9309;52.126;11.616;2023-08-12T10:01:32;21.90;77.70
18365;DHT22;9309;52.126;11.616;2023-08-12T10:03:59;21.90;77.40
18365;DHT22;9309;52.126;11.616;2023-08-12T10:06:27;22.10;77.90
18365;DHT22;9309;52.126;11.616;2023-08-12T10:08:54;22.00;78.00
18365;DHT22;9309;52.126;11.616;2023-08-12T10:11:21;22.10;78.00
18365;DHT22;9309;52.126;11.616;2023-08-12T10:13:48;22.10;78.70
18365;DHT22;9309;52.126;11.616;2023-08-12T10:16:17;21.50;81.00
18365;DHT22;9309;52.126;11.616;2023-08-12T10:18:46;21.40;81.90
18365;DHT22;9309;52.126;11.616;2023-08-12T10:21:14;21.90;80.60
18365;DHT22;9309;52.126;11.616;2023-08-12T10:23:43;22.20;79.60
18365;DHT22;9309;52.126;11.616;2023-08-12T10:26:11;22.50;79.30
18365;DHT22;9309;52.126;11.616;2023-08-12T10:28:39;22.80;79.10
18365;DHT22;9309;52.126;11.616;2023-08-12T10:31:06;23.50;77.50
18365;DHT22;9309;52.126;11.616;2023-08-12T10:33:36;24.30;74.60
18365;DHT22;9309;52.126;11.616;2023-08-12T10:36:03;24.90;71.00
18365;DHT22;9309;52.126;11.616;2023-08-12T10:38:31;25.20;68.00
18365;DHT22;9309;52.126;11.616;2023-08-12T10:43:48;25.60;64.40
18365;DHT22;9309;52.126;11.616;2023-08-12T10:46:20;25.80;63.40
18365;DHT22;9309;52.126;11.616;2023-08-12T10:48:57;25.70;64.10
18365;DHT22;9309;52.126;11.616;2023-08-12T10:51:38;24.50;66.50
18365;DHT22;9309;52.126;11.616;2023-08-12T10:54:15;24.30;68.90
18365;DHT22;9309;52.126;11.616;2023-08-12T11:02:13;25.10;67.70
18365;DHT22;9309;52.126;11.616;2023-08-12T11:04:43;25.70;64.80
18365;DHT22;9309;52.126;11.616;2023-08-12T11:07:16;25.70;64.60
18365;DHT22;9309;52.126;11.616;2023-08-12T11:09:42;26.30;61.40
18365;DHT22;9309;52.126;11.616;2023-08-12T11:12:09;27.00;59.50
18365;DHT22;9309;52.126;11.616;2023-08-12T11:14:47;27.50;58.20
18365;DHT22;9309;52.126;11.616;2023-08-12T11:17:14;29.30;54.10
18365;DHT22;9309;52.126;11.616;2023-08-12T11:19:41;31.70;48.90
18365;DHT22;9309;52.126;11.616;2023-08-12T11:22:10;32.90;46.40
18365;DHT22;9309;52.126;11.616;2023-08-12T11:24:39;32.90;45.60
18365;DHT22;9309;52.126;11.616;2023-08-12T11:27:08;34.90;42.80
18365;DHT22;9309;52.126;11.616;2023-08-12T11:29:35;37.30;38.50
18365;DHT22;9309;52.126;11.616;2023-08-12T11:32:01;38.10;36.00
18365;DHT22;9309;52.126;11.616;2023-08-12T11:34:28;39.10;34.40
18365;DHT22;9309;52.126;11.616;2023-08-12T11:36:57;38.20;34.50
18365;DHT22;9309;52.126;11.616;2023-08-12T11:39:26;37.60;35.80
18365;DHT22;9309;52.126;11.616;2023-08-12T11:41:53;38.00;35.10
18365;DHT22;9309;52.126;11.616;2023-08-12T11:44:21;38.50;34.30
18365;DHT22;9309;52.126;11.616;2023-08-12T11:46:49;37.50;35.40
18365;DHT22;9309;52.126;11.616;2023-08-12T11:49:16;36.20;37.30
18365;DHT22;9309;52.126;11.616;2023-08-12T11:51:43;36.70;37.20
18365;DHT22;9309;52.126;11.616;2023-08-12T11:54:12;35.90;37.80
18365;DHT22;9309;52.126;11.616;2023-08-12T11:56:40;37.20;35.90
18365;DHT22;9309;52.126;11.616;2023-08-12T11:59:07;37.70;35.40
18365;DHT22;9309;52.126;11.616;2023-08-12T12:01:34;38.80;33.20
18365;DHT22;9309;52.126;11.616;2023-08-12T12:04:01;38.50;33.10
18365;DHT22;9309;52.126;11.616;2023-08-12T12:06:29;37.40;34.00
18365;DHT22;9309;52.126;11.616;2023-08-12T12:08:56;37.40;34.50
18365;DHT22;9309;52.126;11.616;2023-08-12T12:11:26;37.90;33.50
18365;DHT22;9309;52.126;11.616;2023-08-12T12:13:54;36.10;35.80
18365;DHT22;9309;52.126;11.616;2023-08-12T12:16:20;32.90;40.90
18365;DHT22;9309;52.126;11.616;2023-08-12T12:18:47;30.40;46.00
18365;DHT22;9309;52.126;11.616;2023-08-12T12:21:20;29.10;49.70
18365;DHT22;9309;52.126;11.616;2023-08-12T12:23:52;28.60;50.90
18365;DHT22;9309;52.126;11.616;2023-08-12T12:26:19;28.20;52.60
18365;DHT22;9309;52.126;11.616;2023-08-12T12:28:46;28.20;52.50
18365;DHT22;9309;52.126;11.616;2023-08-12T12:31:14;28.10;53.30
18365;DHT22;9309;52.126;11.616;2023-08-12T12:33:41;28.00;52.90
18365;DHT22;9309;52.126;11.616;2023-08-12T12:36:07;28.30;53.60
18365;DHT22;9309;52.126;11.616;2023-08-12T12:38:34;28.40;52.10
18365;DHT22;9309;52.126;11.616;2023-08-12T12:41:01;28.20;52.50
18365;DHT22;9309;52.126;11.616;2023-08-12T12:43:27;28.60;52.40
18365;DHT22;9309;52.126;11.616;2023-08-12T12:45:54;29.20;50.90
18365;DHT22;9309;52.126;11.616;2023-08-12T12:48:22;30.30;47.80
18365;DHT22;9309;52.126;11.616;2023-08-12T12:50:49;31.30;46.10
18365;DHT22;9309;52.126;11.616;2023-08-12T12:53:16;33.40;42.80
18365;DHT22;9309;52.126;11.616;2023-08-12T12:55:43;35.70;38.40
18365;DHT22;9309;52.126;11.616;2023-08-12T12:58:10;37.00;36.00
18365;DHT22;9309;52.126;11.616;2023-08-12T13:00:37;37.90;34.20
18365;DHT22;9309;52.126;11.616;2023-08-12T13:03:04;38.00;34.30
18365;DHT22;9309;52.126;11.616;2023-08-12T13:05:32;38.90;32.40
18365;DHT22;9309;52.126;11.616;2023-08-12T13:07:59;39.70;31.80
18365;DHT22;9309;52.126;11.616;2023-08-12T13:10:25;41.00;29.90
18365;DHT22;9309;52.126;11.616;2023-08-12T13:12:52;41.80;29.20
18365;DHT22;9309;52.126;11.616;2023-08-12T13:15:19;41.60;30.00
18365;DHT22;9309;52.126;11.616;2023-08-12T13:17:46;41.30;29.50
18365;DHT22;9309;52.126;11.616;2023-08-12T13:20:12;40.40;31.10
18365;DHT22;9309;52.126;11.616;2023-08-12T13:22:40;40.40;30.80
18365;DHT22;9309;52.126;11.616;2023-08-12T13:25:08;40.60;30.60
18365;DHT22;9309;52.126;11.616;2023-08-12T13:27:34;40.20;30.90
18365;DHT22;9309;52.126;11.616;2023-08-12T13:30:02;41.10;30.50
18365;DHT22;9309;52.126;11.616;2023-08-12T13:32:29;43.20;27.90
18365;DHT22;9309;52.126;11.616;2023-08-12T13:34:56;41.50;29.20
18365;DHT22;9309;52.126;11.616;2023-08-12T13:37:23;39.80;31.40
18365;DHT22;9309;52.126;11.616;2023-08-12T13:39:51;39.90;31.40
18365;DHT22;9309;52.126;11.616;2023-08-12T13:42:18;38.20;33.50
18365;DHT22;9309;52.126;11.616;2023-08-12T13:44:45;38.20;33.90
18365;DHT22;9309;52.126;11.616;2023-08-12T13:47:12;38.90;33.20
18365;DHT22;9309;52.126;11.616;2023-08-12T13:49:39;38.30;33.90
18365;DHT22;9309;52.126;11.616;2023-08-12T13:52:06;38.20;33.70
18365;DHT22;9309;52.126;11.616;2023-08-12T13:54:33;38.00;33.70
18365;DHT22;9309;52.126;11.616;2023-08-12T13:57:03;36.80;35.10
18365;DHT22;9309;52.126;11.616;2023-08-12T13:59:29;35.70;37.40
18365;DHT22;9309;52.126;11.616;2023-08-12T14:01:56;33.80;40.50
18365;DHT22;9309;52.126;11.616;2023-08-12T14:04:23;32.40;43.10
18365;DHT22;9309;52.126;11.616;2023-08-12T14:06:50;31.50;44.50
18365;DHT22;9309;52.126;11.616;2023-08-12T14:09:16;31.20;45.30
18365;DHT22;9309;52.126;11.616;2023-08-12T14:11:45;30.80;46.10
18365;DHT22;9309;52.126;11.616;2023-08-12T14:14:13;30.60;46.10
18365;DHT22;9309;52.126;11.616;2023-08-12T14:16:40;30.90;46.20
18365;DHT22;9309;52.126;11.616;2023-08-12T14:19:07;31.00;47.00
18365;DHT22;9309;52.126;11.616;2023-08-12T14:21:34;30.50;46.80
18365;DHT22;9309;52.126;11.616;2023-08-12T14:24:01;30.20;47.80
18365;DHT22;9309;52.126;11.616;2023-08-12T14:26:27;29.90;47.50
18365;DHT22;9309;52.126;11.616;2023-08-12T14:28:54;29.80;48.40
18365;DHT22;9309;52.126;11.616;2023-08-12T14:31:23;29.70;48.00
18365;DHT22;9309;52.126;11.616;2023-08-12T14:33:50;29.50;48.50
18365;DHT22;9309;52.126;11.616;2023-08-12T14:36:17;29.60;48.80
18365;DHT22;9309;52.126;11.616;2023-08-12T14:38:43;29.50;49.60
18365;DHT22;9309;52.126;11.616;2023-08-12T14:41:10;29.20;50.20
18365;DHT22;9309;52.126;11.616;2023-08-12T14:43:37;28.80;51.30
18365;DHT22;9309;52.126;11.616;2023-08-12T14:46:04;28.80;50.70
18365;DHT22;9309;52.126;11.616;2023-08-12T14:48:32;28.70;51.50
18365;DHT22;9309;52.126;11.616;2023-08-12T14:50:59;28.80;51.80
18365;DHT22;9309;52.126;11.616;2023-08-12T14:53:25;28.80;51.10
18365;DHT22;9309;52.126;11.616;2023-08-12T14:55:52;29.00;50.60
18365;DHT22;9309;52.126;11.616;2023-08-12T14:58:19;28.80;51.00
18365;DHT22;9309;52.126;11.616;2023-08-12T15:00:46;28.90;50.40
18365;DHT22;9309;52.126;11.616;2023-08-12T15:03:13;28.90;49.70
18365;DHT22;9309;52.126;11.616;2023-08-12T15:05:41;28.90;50.30
18365;DHT22;9309;52.126;11.616;2023-08-12T15:08:08;28.70;50.70
18365;DHT22;9309;52.126;11.616;2023-08-12T15:10:35;28.50;51.00
18365;DHT22;9309;52.126;11.616;2023-08-12T15:13:02;28.40;52.10
18365;DHT22;9309;52.126;11.616;2023-08-12T15:15:28;28.30;51.80
18365;DHT22;9309;52.126;11.616;2023-08-12T15:17:55;28.40;51.40
18365;DHT22;9309;52.126;11.616;2023-08-12T15:20:22;28.30;51.30
18365;DHT22;9309;52.126;11.616;2023-08-12T15:22:50;28.10;51.60
18365;DHT22;9309;52.126;11.616;2023-08-12T15:25:17;28.00;52.00
18365;DHT22;9309;52.126;11.616;2023-08-12T15:27:43;27.80;52.30
18365;DHT22;9309;52.126;11.616;2023-08-12T15:30:10;27.70;52.50
18365;DHT22;9309;52.126;11.616;2023-08-12T15:32:37;27.70;52.90
18365;DHT22;9309;52.126;11.616;2023-08-12T15:35:05;27.60;53.40
18365;DHT22;9309;52.126;11.616;2023-08-12T15:37:31;27.70;53.50
18365;DHT22;9309;52.126;11.616;2023-08-12T15:39:59;27.70;53.60